sensor_id;sensor_type;location;lat;lon;timestamp;temperature;humidity
67050;DHT22;53955;52.442;13.284;2022-09-27T00:00:24;15.80;50.20
67050;DHT22;53955;52.442;13.284;2022-09-27T00:02:51;15.70;51.40
67050;DHT22;53955;52.442;13.284;2022-09-27T00:05:18;15.70;51.70
67050;DHT22;53955;52.442;13.284;2022-09-27T00:07:46;15.60;51.90
67050;DHT22;53955;52.442;13.284;2022-09-27T00:10:13;15.50;51.70
67050;DHT22;53955;52.442;13.284;2022-09-27T00:12:40;15.60;51.40
67050;DHT22;53955;52.442;13.284;2022-09-27T00:15:08;15.50;51.70
67050;DHT22;53955;52.442;13.284;2022-09-27T00:17:35;15.50;52.20
67050;DHT22;53955;52.442;13.284;2022-09-27T00:20:04;15.60;52.10
67050;DHT22;53955;52.442;13.284;2022-09-27T00:22:31;15.50;51.80
67050;DHT22;53955;52.442;13.284;2022-09-27T00:24:59;15.60;51.90
67050;DHT22;53955;52.442;13.284;2022-09-27T00:27:26;15.50;51.20
67050;DHT22;53955;52.442;13.284;2022-09-27T00:29:53;15.60;51.90
67050;DHT22;53955;52.442;13.284;2022-09-27T00:32:19;15.60;52.00
67050;DHT22;53955;52.442;13.284;2022-09-27T00:34:46;15.60;51.10
67050;DHT22;53955;52.442;13.284;2022-09-27T00:37:12;15.50;52.00
67050;DHT22;53955;52.442;13.284;2022-09-27T00:39:39;15.60;52.10
67050;DHT22;53955;52.442;13.284;2022-09-27T00:42:09;15.60;51.80
67050;DHT22;53955;52.442;13.284;2022-09-27T00:45:04;15.50;51.50
67050;DHT22;53955;52.442;13.284;2022-09-27T00:47:35;15.50;51.60
67050;DHT22;53955;52.442;13.284;2022-09-27T00:50:08;15.50;52.30
67050;DHT22;53955;52.442;13.284;2022-09-27T00:52:42;15.50;52.00
67050;DHT22;53955;52.442;13.284;2022-09-27T00:55:14;15.60;52.00
67050;DHT22;53955;52.442;13.284;2022-09-27T00:57:44;15.60;51.10
67050;DHT22;53955;52.442;13.284;2022-09-27T01:00:12;15.60;51.30
67050;DHT22;53955;52.442;13.284;2022-09-27T01:02:42;15.60;52.00
67050;DHT22;53955;52.442;13.284;2022-09-27T01:05:10;15.70;51.40
67050;DHT22;53955;52.442;13.284;2022-09-27T01:07:38;15.70;50.60
67050;DHT22;53955;52.442;13.284;2022-09-27T01:10:05;15.60;51.00
67050;DHT22;53955;52.442;13.284;2022-09-27T01:12:41;15.50;51.10
67050;DHT22;53955;52.442;13.284;2022-09-27T01:15:17;15.50;52.20
67050;DHT22;53955;52.442;13.284;2022-09-27T01:17:52;15.40;51.80
67050;DHT22;53955;52.442;13.284;2022-09-27T01:20:41;15.40;52.60
67050;DHT22;53955;52.442;13.284;2022-09-27T01:23:30;15.40;53.40
67050;DHT22;53955;52.442;13.284;2022-09-27T01:26:09;15.50;52.10
67050;DHT22;53955;52.442;13.284;2022-09-27T01:28:46;15.50;51.60
67050;DHT22;53955;52.442;13.284;2022-09-27T01:31:23;15.40;51.70
67050;DHT22;53955;52.442;13.284;2022-09-27T01:34:01;15.40;51.70
67050;DHT22;53955;52.442;13.284;2022-09-27T01:36:40;15.50;52.00
67050;DHT22;53955;52.442;13.284;2022-09-27T01:39:15;15.50;52.00
67050;DHT22;53955;52.442;13.284;2022-09-27T01:41:51;15.50;51.80
67050;DHT22;53955;52.442;13.284;2022-09-27T01:44:23;15.50;51.80
67050;DHT22;53955;52.442;13.284;2022-09-27T01:46:56;15.50;51.40
67050;DHT22;53955;52.442;13.284;2022-09-27T01:49:25;15.40;52.90
67050;DHT22;53955;52.442;13.284;2022-09-27T01:51:57;15.50;51.70
67050;DHT22;53955;52.442;13.284;2022-09-27T01:54:30;15.40;51.90
67050;DHT22;53955;52.442;13.284;2022-09-27T01:56:59;15.50;52.00
67050;DHT22;53955;52.442;13.284;2022-09-27T01:59:30;15.40;51.80
67050;DHT22;53955;52.442;13.284;2022-09-27T02:02:03;15.40;52.00
67050;DHT22;53955;52.442;13.284;2022-09-27T02:04:32;15.50;51.50
67050;DHT22;53955;52.442;13.284;2022-09-27T02:07:02;15.40;52.70
67050;DHT22;53955;52.442;13.284;2022-09-27T02:09:33;15.40;52.70
67050;DHT22;53955;52.442;13.284;2022-09-27T02:12:04;15.50;51.10
67050;DHT22;53955;52.442;13.284;2022-09-27T02:14:34;15.40;52.20
67050;DHT22;53955;52.442;13.284;2022-09-27T02:17:08;15.60;51.70
67050;DHT22;53955;52.442;13.284;2022-09-27T02:19:42;15.60;51.90
67050;DHT22;53955;52.442;13.284;2022-09-27T02:22:16;15.50;51.90
67050;DHT22;53955;52.442;13.284;2022-09-27T02:24:49;15.50;51.70
67050;DHT22;53955;52.442;13.284;2022-09-27T02:27:22;15.50;51.40
67050;DHT22;53955;52.442;13.284;2022-09-27T02:29:53;15.50;52.10
67050;DHT22;53955;52.442;13.284;2022-09-27T02:32:25;15.40;53.00
67050;DHT22;53955;52.442;13.284;2022-09-27T02:34:52;15.40;51.80
67050;DHT22;53955;52.442;13.284;2022-09-27T02:37:20;15.50;52.20
67050;DHT22;53955;52.442;13.284;2022-09-27T02:39:47;15.50;52.10
67050;DHT22;53955;52.442;13.284;2022-09-27T02:42:13;15.50;51.50
67050;DHT22;53955;52.442;13.284;2022-09-27T02:44:40;15.60;52.00
67050;DHT22;53955;52.442;13.284;2022-09-27T02:47:18;15.70;51.70
67050;DHT22;53955;52.442;13.284;2022-09-27T02:49:59;15.70;51.50
67050;DHT22;53955;52.442;13.284;2022-09-27T02:52:33;15.70;52.00
67050;DHT22;53955;52.442;13.284;2022-09-27T02:55:11;15.70;52.70
67050;DHT22;53955;52.442;13.284;2022-09-27T02:57:49;15.80;51.80
67050;DHT22;53955;52.442;13.284;2022-09-27T03:00:21;15.80;52.20
67050;DHT22;53955;52.442;13.284;2022-09-27T03:02:54;15.70;52.20
67050;DHT22;53955;52.442;13.284;2022-09-27T03:05:27;15.70;52.70
67050;DHT22;53955;52.442;13.284;2022-09-27T03:07:55;15.70;51.30
67050;DHT22;53955;52.442;13.284;2022-09-27T03:10:23;15.70;51.60
67050;DHT22;53955;52.442;13.284;2022-09-27T03:12:50;15.70;51.60
67050;DHT22;53955;52.442;13.284;2022-09-27T03:15:17;15.50;52.10
67050;DHT22;53955;52.442;13.284;2022-09-27T03:17:44;15.50;52.40
67050;DHT22;53955;52.442;13.284;2022-09-27T03:20:11;15.50;52.20
67050;DHT22;53955;52.442;13.284;2022-09-27T03:22:39;15.50;52.60
67050;DHT22;53955;52.442;13.284;2022-09-27T03:25:07;15.50;53.20
67050;DHT22;53955;52.442;13.284;2022-09-27T03:27:34;15.50;53.30
67050;DHT22;53955;52.442;13.284;2022-09-27T03:30:01;15.60;53.20
67050;DHT22;53955;52.442;13.284;2022-09-27T03:32:27;15.60;53.20
67050;DHT22;53955;52.442;13.284;2022-09-27T03:34:55;15.60;53.80
67050;DHT22;53955;52.442;13.284;2022-09-27T03:37:22;15.70;53.20
67050;DHT22;53955;52.442;13.284;2022-09-27T03:39:50;15.50;53.50
67050;DHT22;53955;52.442;13.284;2022-09-27T03:42:16;15.50;54.90
67050;DHT22;53955;52.442;13.284;2022-09-27T03:44:43;15.40;55.00
67050;DHT22;53955;52.442;13.284;2022-09-27T03:47:10;15.60;55.80
67050;DHT22;53955;52.442;13.284;2022-09-27T03:49:36;15.50;55.80
67050;DHT22;53955;52.442;13.284;2022-09-27T03:52:03;15.40;57.40
67050;DHT22;53955;52.442;13.284;2022-09-27T03:54:30;15.40;57.10
67050;DHT22;53955;52.442;13.284;2022-09-27T03:56:58;15.50;57.70
67050;DHT22;53955;52.442;13.284;2022-09-27T03:59:25;15.50;58.00
67050;DHT22;53955;52.442;13.284;2022-09-27T04:01:52;15.40;57.10
67050;DHT22;53955;52.442;13.284;2022-09-27T04:04:19;15.40;58.60
67050;DHT22;53955;52.442;13.284;2022-09-27T04:06:45;15.40;59.60
67050;DHT22;53955;52.442;13.284;2022-09-27T04:09:12;15.40;59.20
67050;DHT22;53955;52.442;13.284;2022-09-27T04:11:38;15.30;59.90
67050;DHT22;53955;52.442;13.284;2022-09-27T04:14:06;15.30;60.60
67050;DHT22;53955;52.442;13.284;2022-09-27T04:16:37;15.30;60.60
67050;DHT22;53955;52.442;13.284;2022-09-27T04:19:04;15.50;59.00
67050;DHT22;53955;52.442;13.284;2022-09-27T04:21:31;15.40;60.00
67050;DHT22;53955;52.442;13.284;2022-09-27T04:23:58;15.30;60.20
67050;DHT22;53955;52.442;13.284;2022-09-27T04:26:24;15.30;60.90
67050;DHT22;53955;52.442;13.284;2022-09-27T04:28:51;15.30;60.60
67050;DHT22;53955;52.442;13.284;2022-09-27T04:31:19;15.30;61.50
67050;DHT22;53955;52.442;13.284;2022-09-27T04:33:45;15.20;61.70
67050;DHT22;53955;52.442;13.284;2022-09-27T04:36:15;15.20;62.20
67050;DHT22;53955;52.442;13.284;2022-09-27T04:38:51;15.10;63.30
67050;DHT22;53955;52.442;13.284;2022-09-27T04:41:18;15.10;62.30
67050;DHT22;53955;52.442;13.284;2022-09-27T04:43:45;15.10;63.70
67050;DHT22;53955;52.442;13.284;2022-09-27T04:46:12;15.10;63.70
67050;DHT22;53955;52.442;13.284;2022-09-27T04:48:40;15.00;64.30
67050;DHT22;53955;52.442;13.284;2022-09-27T04:51:08;15.00;65.50
67050;DHT22;53955;52.442;13.284;2022-09-27T04:53:35;15.00;65.00
67050;DHT22;53955;52.442;13.284;2022-09-27T04:56:01;15.00;65.00
67050;DHT22;53955;52.442;13.284;2022-09-27T04:58:31;15.10;65.40
67050;DHT22;53955;52.442;13.284;2022-09-27T05:00:59;14.90;65.20
67050;DHT22;53955;52.442;13.284;2022-09-27T05:03:26;14.90;66.10
67050;DHT22;53955;52.442;13.284;2022-09-27T05:05:54;15.00;66.50
67050;DHT22;53955;52.442;13.284;2022-09-27T05:08:21;14.80;67.10
67050;DHT22;53955;52.442;13.284;2022-09-27T05:10:47;14.80;67.20
67050;DHT22;53955;52.442;13.284;2022-09-27T05:13:15;14.80;68.30
67050;DHT22;53955;52.442;13.284;2022-09-27T05:15:42;14.70;68.40
67050;DHT22;53955;52.442;13.284;2022-09-27T05:18:09;14.80;68.60
67050;DHT22;53955;52.442;13.284;2022-09-27T05:20:36;14.80;68.90
67050;DHT22;53955;52.442;13.284;2022-09-27T05:23:04;14.90;68.30
67050;DHT22;53955;52.442;13.284;2022-09-27T05:25:31;14.90;68.20
67050;DHT22;53955;52.442;13.284;2022-09-27T05:27:58;14.80;68.80
67050;DHT22;53955;52.442;13.284;2022-09-27T05:30:25;14.80;69.40
67050;DHT22;53955;52.442;13.284;2022-09-27T05:32:52;14.80;69.70
67050;DHT22;53955;52.442;13.284;2022-09-27T05:35:19;14.90;69.80
67050;DHT22;53955;52.442;13.284;2022-09-27T05:37:50;14.80;69.40
67050;DHT22;53955;52.442;13.284;2022-09-27T05:40:19;14.80;69.60
67050;DHT22;53955;52.442;13.284;2022-09-27T05:42:49;14.80;69.90
67050;DHT22;53955;52.442;13.284;2022-09-27T05:45:16;14.70;70.20
67050;DHT22;53955;52.442;13.284;2022-09-27T05:47:42;14.60;70.30
67050;DHT22;53955;52.442;13.284;2022-09-27T05:50:09;14.70;71.10
67050;DHT22;53955;52.442;13.284;2022-09-27T05:52:35;14.60;70.80
67050;DHT22;53955;52.442;13.284;2022-09-27T05:55:03;14.60;70.80
67050;DHT22;53955;52.442;13.284;2022-09-27T05:57:31;14.50;70.90
67050;DHT22;53955;52.442;13.284;2022-09-27T05:59:59;14.60;72.00
67050;DHT22;53955;52.442;13.284;2022-09-27T06:02:25;14.40;72.20
67050;DHT22;53955;52.442;13.284;2022-09-27T06:04:52;14.50;72.40
67050;DHT22;53955;52.442;13.284;2022-09-27T06:07:19;14.50;72.50
67050;DHT22;53955;52.442;13.284;2022-09-27T06:09:46;14.60;72.40
67050;DHT22;53955;52.442;13.284;2022-09-27T06:12:12;14.50;71.90
67050;DHT22;53955;52.442;13.284;2022-09-27T06:14:40;14.60;72.80
67050;DHT22;53955;52.442;13.284;2022-09-27T06:17:07;14.50;71.70
67050;DHT22;53955;52.442;13.284;2022-09-27T06:19:33;14.60;71.70
67050;DHT22;53955;52.442;13.284;2022-09-27T06:22:00;14.60;71.30
67050;DHT22;53955;52.442;13.284;2022-09-27T06:24:27;14.60;72.20
67050;DHT22;53955;52.442;13.284;2022-09-27T06:26:53;14.60;73.00
67050;DHT22;53955;52.442;13.284;2022-09-27T06:29:20;14.70;72.20
67050;DHT22;53955;52.442;13.284;2022-09-27T06:31:48;14.60;72.00
67050;DHT22;53955;52.442;13.284;2022-09-27T06:34:14;14.60;72.10
67050;DHT22;53955;52.442;13.284;2022-09-27T06:36:41;14.60;73.20
67050;DHT22;53955;52.442;13.284;2022-09-27T06:39:08;14.60;72.50
67050;DHT22;53955;52.442;13.284;2022-09-27T06:41:34;14.60;73.10
67050;DHT22;53955;52.442;13.284;2022-09-27T06:44:01;14.70;72.10
67050;DHT22;53955;52.442;13.284;2022-09-27T06:46:28;14.70;72.20
67050;DHT22;53955;52.442;13.284;2022-09-27T06:48:56;14.70;72.90
67050;DHT22;53955;52.442;13.284;2022-09-27T06:51:22;14.70;72.70
67050;DHT22;53955;52.442;13.284;2022-09-27T06:53:49;14.80;72.60
67050;DHT22;53955;52.442;13.284;2022-09-27T06:56:16;14.70;73.20
67050;DHT22;53955;52.442;13.284;2022-09-27T06:58:42;14.70;73.10
67050;DHT22;53955;52.442;13.284;2022-09-27T07:01:27;14.70;73.00
67050;DHT22;53955;52.442;13.284;2022-09-27T07:03:55;14.70;73.30
67050;DHT22;53955;52.442;13.284;2022-09-27T07:06:23;14.70;73.30
67050;DHT22;53955;52.442;13.284;2022-09-27T07:08:51;14.70;73.20
67050;DHT22;53955;52.442;13.284;2022-09-27T07:11:18;14.80;73.60
67050;DHT22;53955;52.442;13.284;2022-09-27T07:13:47;14.70;74.10
67050;DHT22;53955;52.442;13.284;2022-09-27T07:16:14;14.70;73.10
67050;DHT22;53955;52.442;13.284;2022-09-27T07:18:41;14.60;73.50
67050;DHT22;53955;52.442;13.284;2022-09-27T07:21:09;14.60;73.90
67050;DHT22;53955;52.442;13.284;2022-09-27T07:23:36;14.60;74.30
67050;DHT22;53955;52.442;13.284;2022-09-27T07:26:04;14.60;74.70
67050;DHT22;53955;52.442;13.284;2022-09-27T07:28:33;14.50;75.40
67050;DHT22;53955;52.442;13.284;2022-09-27T07:31:00;14.50;75.40
67050;DHT22;53955;52.442;13.284;2022-09-27T07:33:27;14.50;75.30
67050;DHT22;53955;52.442;13.284;2022-09-27T07:35:54;14.60;75.10
67050;DHT22;53955;52.442;13.284;2022-09-27T07:38:22;14.60;75.70
67050;DHT22;53955;52.442;13.284;2022-09-27T07:40:48;14.70;75.70
67050;DHT22;53955;52.442;13.284;2022-09-27T07:43:15;14.60;74.40
67050;DHT22;53955;52.442;13.284;2022-09-27T07:45:43;14.60;74.10
67050;DHT22;53955;52.442;13.284;2022-09-27T07:48:13;14.60;76.10
67050;DHT22;53955;52.442;13.284;2022-09-27T07:50:39;14.80;75.10
67050;DHT22;53955;52.442;13.284;2022-09-27T07:53:06;14.70;75.40
67050;DHT22;53955;52.442;13.284;2022-09-27T07:55:39;14.80;75.50
67050;DHT22;53955;52.442;13.284;2022-09-27T07:58:08;14.80;74.50
67050;DHT22;53955;52.442;13.284;2022-09-27T08:00:36;14.80;74.90
67050;DHT22;53955;52.442;13.284;2022-09-27T08:03:04;14.80;75.70
67050;DHT22;53955;52.442;13.284;2022-09-27T08:05:33;14.80;75.60
67050;DHT22;53955;52.442;13.284;2022-09-27T08:08:00;15.00;75.70
67050;DHT22;53955;52.442;13.284;2022-09-27T08:10:28;14.90;74.80
67050;DHT22;53955;52.442;13.284;2022-09-27T08:12:57;15.00;74.90
67050;DHT22;53955;52.442;13.284;2022-09-27T08:15:24;14.90;75.00
67050;DHT22;53955;52.442;13.284;2022-09-27T08:17:53;14.90;74.90
67050;DHT22;53955;52.442;13.284;2022-09-27T08:20:19;14.90;74.70
67050;DHT22;53955;52.442;13.284;2022-09-27T08:22:46;14.90;75.10
67050;DHT22;53955;52.442;13.284;2022-09-27T08:25:12;14.90;75.70
67050;DHT22;53955;52.442;13.284;2022-09-27T08:27:39;14.90;74.60
67050;DHT22;53955;52.442;13.284;2022-09-27T08:30:09;14.90;75.10
67050;DHT22;53955;52.442;13.284;2022-09-27T08:32:35;15.00;75.60
67050;DHT22;53955;52.442;13.284;2022-09-27T08:35:03;14.90;74.60
67050;DHT22;53955;52.442;13.284;2022-09-27T08:37:31;15.00;75.40
67050;DHT22;53955;52.442;13.284;2022-09-27T08:39:58;14.90;74.70
67050;DHT22;53955;52.442;13.284;2022-09-27T08:42:32;15.00;75.00
67050;DHT22;53955;52.442;13.284;2022-09-27T08:45:09;15.00;75.10
67050;DHT22;53955;52.442;13.284;2022-09-27T08:47:40;15.20;74.40
67050;DHT22;53955;52.442;13.284;2022-09-27T08:50:20;15.00;73.70
67050;DHT22;53955;52.442;13.284;2022-09-27T08:52:52;15.10;75.00
67050;DHT22;53955;52.442;13.284;2022-09-27T08:55:25;15.00;74.90
67050;DHT22;53955;52.442;13.284;2022-09-27T08:57:55;15.00;74.80
67050;DHT22;53955;52.442;13.284;2022-09-27T09:00:24;15.00;75.10
67050;DHT22;53955;52.442;13.284;2022-09-27T09:02:50;15.00;74.40
67050;DHT22;53955;52.442;13.284;2022-09-27T09:05:26;14.90;74.80
67050;DHT22;53955;52.442;13.284;2022-09-27T09:08:07;14.90;75.40
67050;DHT22;53955;52.442;13.284;2022-09-27T09:10:46;15.00;75.10
67050;DHT22;53955;52.442;13.284;2022-09-27T09:13:42;15.10;75.20
67050;DHT22;53955;52.442;13.284;2022-09-27T09:16:16;15.10;74.40
67050;DHT22;53955;52.442;13.284;2022-09-27T09:18:57;15.10;74.20
67050;DHT22;53955;52.442;13.284;2022-09-27T09:21:32;15.10;74.90
67050;DHT22;53955;52.442;13.284;2022-09-27T09:24:22;15.20;75.00
67050;DHT22;53955;52.442;13.284;2022-09-27T09:26:56;15.20;74.80
67050;DHT22;53955;52.442;13.284;2022-09-27T09:29:42;15.40;75.10
67050;DHT22;53955;52.442;13.284;2022-09-27T09:32:24;15.40;74.80
67050;DHT22;53955;52.442;13.284;2022-09-27T09:34:58;15.50;73.00
67050;DHT22;53955;52.442;13.284;2022-09-27T09:37:33;15.50;72.60
67050;DHT22;53955;52.442;13.284;2022-09-27T09:40:04;15.50;72.40
67050;DHT22;53955;52.442;13.284;2022-09-27T09:42:37;15.50;73.20
67050;DHT22;53955;52.442;13.284;2022-09-27T09:45:11;15.40;73.10
67050;DHT22;53955;52.442;13.284;2022-09-27T09:47:45;15.50;72.80
67050;DHT22;53955;52.442;13.284;2022-09-27T09:50:16;15.40;73.60
67050;DHT22;53955;52.442;13.284;2022-09-27T09:52:46;15.50;72.80
67050;DHT22;53955;52.442;13.284;2022-09-27T09:55:18;15.50;73.20
67050;DHT22;53955;52.442;13.284;2022-09-27T09:57:53;15.50;73.30
67050;DHT22;53955;52.442;13.284;2022-09-27T10:00:21;15.70;72.90
67050;DHT22;53955;52.442;13.284;2022-09-27T10:02:52;15.70;73.20
67050;DHT22;53955;52.442;13.284;2022-09-27T10:05:21;16.00;72.40
67050;DHT22;53955;52.442;13.284;2022-09-27T10:07:50;16.00;72.50
67050;DHT22;53955;52.442;13.284;2022-09-27T10:10:20;16.20;72.00
67050;DHT22;53955;52.442;13.284;2022-09-27T10:12:47;16.40;70.80
67050;DHT22;53955;52.442;13.284;2022-09-27T10:15:17;16.70;70.00
67050;DHT22;53955;52.442;13.284;2022-09-27T10:17:45;16.80;68.00
67050;DHT22;53955;52.442;13.284;2022-09-27T10:20:22;16.70;68.20
67050;DHT22;53955;52.442;13.284;2022-09-27T10:22:52;16.70;68.30
67050;DHT22;53955;52.442;13.284;2022-09-27T10:25:21;16.60;68.00
67050;DHT22;53955;52.442;13.284;2022-09-27T10:27:51;16.40;68.10
67050;DHT22;53955;52.442;13.284;2022-09-27T10:30:26;16.40;68.90
67050;DHT22;53955;52.442;13.284;2022-09-27T10:32:55;16.40;69.30
67050;DHT22;53955;52.442;13.284;2022-09-27T10:35:35;16.40;69.10
67050;DHT22;53955;52.442;13.284;2022-09-27T10:38:19;16.40;69.80
67050;DHT22;53955;52.442;13.284;2022-09-27T10:40:47;16.40;69.00
67050;DHT22;53955;52.442;13.284;2022-09-27T10:43:25;16.40;68.90
67050;DHT22;53955;52.442;13.284;2022-09-27T10:45:59;16.60;67.30
67050;DHT22;53955;52.442;13.284;2022-09-27T10:48:26;16.70;67.40
67050;DHT22;53955;52.442;13.284;2022-09-27T10:50:57;16.70;66.50
67050;DHT22;53955;52.442;13.284;2022-09-27T10:53:26;16.60;66.90
67050;DHT22;53955;52.442;13.284;2022-09-27T10:55:53;16.60;67.80
67050;DHT22;53955;52.442;13.284;2022-09-27T10:58:26;16.50;67.40
67050;DHT22;53955;52.442;13.284;2022-09-27T11:00:54;16.40;68.00
67050;DHT22;53955;52.442;13.284;2022-09-27T11:03:22;16.40;69.20
67050;DHT22;53955;52.442;13.284;2022-09-27T11:05:50;16.30;68.90
67050;DHT22;53955;52.442;13.284;2022-09-27T11:08:23;16.30;69.80
67050;DHT22;53955;52.442;13.284;2022-09-27T11:11:03;16.40;69.80
67050;DHT22;53955;52.442;13.284;2022-09-27T11:13:31;16.40;70.90
67050;DHT22;53955;52.442;13.284;2022-09-27T11:16:11;16.50;71.60
67050;DHT22;53955;52.442;13.284;2022-09-27T11:18:49;16.40;71.50
67050;DHT22;53955;52.442;13.284;2022-09-27T11:21:26;16.50;71.70
67050;DHT22;53955;52.442;13.284;2022-09-27T11:24:13;16.40;71.70
67050;DHT22;53955;52.442;13.284;2022-09-27T11:26:47;16.50;71.70
67050;DHT22;53955;52.442;13.284;2022-09-27T11:29:21;16.40;72.40
67050;DHT22;53955;52.442;13.284;2022-09-27T11:32:12;16.40;72.60
67050;DHT22;53955;52.442;13.284;2022-09-27T11:34:53;16.40;72.50
67050;DHT22;53955;52.442;13.284;2022-09-27T11:37:29;16.20;72.70
67050;DHT22;53955;52.442;13.284;2022-09-27T11:40:10;15.90;71.70
67050;DHT22;53955;52.442;13.284;2022-09-27T11:43:08;15.70;72.00
67050;DHT22;53955;52.442;13.284;2022-09-27T11:45:49;15.50;72.10
67050;DHT22;53955;52.442;13.284;2022-09-27T11:48:30;15.40;74.40
67050;DHT22;53955;52.442;13.284;2022-09-27T11:51:12;15.30;74.00
67050;DHT22;53955;52.442;13.284;2022-09-27T11:54:08;15.20;74.30
67050;DHT22;53955;52.442;13.284;2022-09-27T11:56:47;15.20;74.80
67050;DHT22;53955;52.442;13.284;2022-09-27T12:02:24;14.90;75.70
67050;DHT22;53955;52.442;13.284;2022-09-27T12:05:04;15.00;76.40
67050;DHT22;53955;52.442;13.284;2022-09-27T12:07:40;15.00;75.70
67050;DHT22;53955;52.442;13.284;2022-09-27T12:10:13;15.10;75.80
67050;DHT22;53955;52.442;13.284;2022-09-27T12:12:44;15.10;75.50
67050;DHT22;53955;52.442;13.284;2022-09-27T12:15:15;15.20;76.30
67050;DHT22;53955;52.442;13.284;2022-09-27T12:17:44;15.30;75.90
67050;DHT22;53955;52.442;13.284;2022-09-27T12:20:18;15.30;76.30
67050;DHT22;53955;52.442;13.284;2022-09-27T12:22:51;15.40;74.20
67050;DHT22;53955;52.442;13.284;2022-09-27T12:25:20;15.50;75.00
67050;DHT22;53955;52.442;13.284;2022-09-27T12:27:52;15.60;75.20
67050;DHT22;53955;52.442;13.284;2022-09-27T12:30:20;15.90;74.50
67050;DHT22;53955;52.442;13.284;2022-09-27T12:32:54;16.00;73.50
67050;DHT22;53955;52.442;13.284;2022-09-27T12:35:24;16.30;71.70
67050;DHT22;53955;52.442;13.284;2022-09-27T12:37:56;16.30;70.80
67050;DHT22;53955;52.442;13.284;2022-09-27T12:40:28;16.40;69.90
67050;DHT22;53955;52.442;13.284;2022-09-27T12:43:03;16.20;70.00
67050;DHT22;53955;52.442;13.284;2022-09-27T12:45:38;16.30;70.70
67050;DHT22;53955;52.442;13.284;2022-09-27T12:48:12;16.20;70.70
67050;DHT22;53955;52.442;13.284;2022-09-27T12:50:51;16.30;70.60
67050;DHT22;53955;52.442;13.284;2022-09-27T12:53:22;16.40;70.80
67050;DHT22;53955;52.442;13.284;2022-09-27T12:56:01;16.50;70.50
67050;DHT22;53955;52.442;13.284;2022-09-27T12:58:46;16.50;71.00
67050;DHT22;53955;52.442;13.284;2022-09-27T13:01:23;16.60;71.10
67050;DHT22;53955;52.442;13.284;2022-09-27T13:04:04;16.60;69.90
67050;DHT22;53955;52.442;13.284;2022-09-27T13:06:58;16.50;70.20
67050;DHT22;53955;52.442;13.284;2022-09-27T13:09:41;16.30;69.90
67050;DHT22;53955;52.442;13.284;2022-09-27T13:12:12;16.20;69.80
67050;DHT22;53955;52.442;13.284;2022-09-27T13:14:44;16.10;71.70
67050;DHT22;53955;52.442;13.284;2022-09-27T13:17:30;15.90;73.00
67050;DHT22;53955;52.442;13.284;2022-09-27T13:19:57;15.90;72.50
67050;DHT22;53955;52.442;13.284;2022-09-27T13:22:37;16.10;72.90
67050;DHT22;53955;52.442;13.284;2022-09-27T13:28:32;16.30;71.50
67050;DHT22;53955;52.442;13.284;2022-09-27T13:31:02;16.40;70.00
67050;DHT22;53955;52.442;13.284;2022-09-27T13:33:39;16.50;70.40
67050;DHT22;53955;52.442;13.284;2022-09-27T13:36:25;16.50;70.80
67050;DHT22;53955;52.442;13.284;2022-09-27T13:39:04;16.30;70.20
67050;DHT22;53955;52.442;13.284;2022-09-27T13:41:56;16.40;69.60
67050;DHT22;53955;52.442;13.284;2022-09-27T13:44:37;16.60;69.40
67050;DHT22;53955;52.442;13.284;2022-09-27T13:47:19;16.70;69.50
67050;DHT22;53955;52.442;13.284;2022-09-27T13:49:54;16.70;70.00
67050;DHT22;53955;52.442;13.284;2022-09-27T13:52:27;16.70;69.10
67050;DHT22;53955;52.442;13.284;2022-09-27T13:54:59;16.60;69.50
67050;DHT22;53955;52.442;13.284;2022-09-27T13:57:42;16.40;68.50
67050;DHT22;53955;52.442;13.284;2022-09-27T14:00:12;16.40;68.00
67050;DHT22;53955;52.442;13.284;2022-09-27T14:02:48;16.40;67.20
67050;DHT22;53955;52.442;13.284;2022-09-27T14:05:19;16.30;66.80
67050;DHT22;53955;52.442;13.284;2022-09-27T14:07:48;16.20;65.70
67050;DHT22;53955;52.442;13.284;2022-09-27T14:10:18;16.10;66.00
67050;DHT22;53955;52.442;13.284;2022-09-27T14:12:47;16.10;67.80
67050;DHT22;53955;52.442;13.284;2022-09-27T14:15:18;16.10;67.10
67050;DHT22;53955;52.442;13.284;2022-09-27T14:17:47;16.00;68.20
67050;DHT22;53955;52.442;13.284;2022-09-27T14:20:31;15.90;69.50
67050;DHT22;53955;52.442;13.284;2022-09-27T14:22:59;15.90;69.90
67050;DHT22;53955;52.442;13.284;2022-09-27T14:25:26;16.10;69.70
67050;DHT22;53955;52.442;13.284;2022-09-27T14:27:52;16.00;68.10
67050;DHT22;53955;52.442;13.284;2022-09-27T14:30:21;16.20;68.30
67050;DHT22;53955;52.442;13.284;2022-09-27T14:32:51;16.20;68.50
67050;DHT22;53955;52.442;13.284;2022-09-27T14:35:20;16.10;67.40
67050;DHT22;53955;52.442;13.284;2022-09-27T14:38:15;16.20;68.10
67050;DHT22;53955;52.442;13.284;2022-09-27T14:40:59;16.30;68.30
67050;DHT22;53955;52.442;13.284;2022-09-27T14:43:26;16.20;68.20
67050;DHT22;53955;52.442;13.284;2022-09-27T14:45:57;16.20;68.90
67050;DHT22;53955;52.442;13.284;2022-09-27T14:48:29;16.20;68.10
67050;DHT22;53955;52.442;13.284;2022-09-27T14:50:58;16.00;68.40
67050;DHT22;53955;52.442;13.284;2022-09-27T14:53:29;16.00;68.80
67050;DHT22;53955;52.442;13.284;2022-09-27T14:55:57;16.10;68.70
67050;DHT22;53955;52.442;13.284;2022-09-27T14:58:24;16.00;68.90
67050;DHT22;53955;52.442;13.284;2022-09-27T15:00:52;15.90;69.90
67050;DHT22;53955;52.442;13.284;2022-09-27T15:03:27;15.90;69.80
67050;DHT22;53955;52.442;13.284;2022-09-27T15:05:58;15.80;70.10
67050;DHT22;53955;52.442;13.284;2022-09-27T15:08:27;15.80;70.90
67050;DHT22;53955;52.442;13.284;2022-09-27T15:10:57;15.80;70.30
67050;DHT22;53955;52.442;13.284;2022-09-27T15:13:25;15.80;71.60
67050;DHT22;53955;52.442;13.284;2022-09-27T15:15:53;15.70;72.30
67050;DHT22;53955;52.442;13.284;2022-09-27T15:18:32;15.60;72.30
67050;DHT22;53955;52.442;13.284;2022-09-27T15:21:01;15.60;73.60
67050;DHT22;53955;52.442;13.284;2022-09-27T15:23:29;15.50;73.40
67050;DHT22;53955;52.442;13.284;2022-09-27T15:26:03;15.50;73.80
67050;DHT22;53955;52.442;13.284;2022-09-27T15:28:32;15.40;75.20
67050;DHT22;53955;52.442;13.284;2022-09-27T15:31:03;15.50;74.30
67050;DHT22;53955;52.442;13.284;2022-09-27T15:33:32;15.50;74.30
67050;DHT22;53955;52.442;13.284;2022-09-27T15:36:03;15.60;73.90
67050;DHT22;53955;52.442;13.284;2022-09-27T15:38:31;15.40;74.80
67050;DHT22;53955;52.442;13.284;2022-09-27T15:41:12;15.50;74.50
67050;DHT22;53955;52.442;13.284;2022-09-27T15:43:46;15.30;75.60
67050;DHT22;53955;52.442;13.284;2022-09-27T15:46:35;15.30;75.50